Terminal Aerodrome Forecast
Issued by NWS Sterling, VA

Home | Current Version | Previous Version | Text Only | Print | Product List | Glossary On
Versions: 1 2 3 4 5 6 7 8 9 10 11 12 13 14 15 16 17 18
000
FTUS41 KLWX 160500 RRA
TAFCHO
TAF
KCHO 160541Z 1606/1706 36015G20KT P6SM SCT050
     FM161000 01012G18KT P6SM SCT080
     FM161700 04013KT P6SM SKC
     FM162200 05008KT P6SM SKC
     FM170000 06004KT P6SM SKC=

USA.gov is the U.S. government's official web portal to all federal, state and local government web resources and services.